x

Matinicus Rock, Me (mism1) Weather Station

3:00 - Fri 9th Dec 2016 All times are EST. -5 hours from GMT.

  • Wind
    34mph, 40mph gusts
  • Air Temp 31°f
  • Sea Pressure 1010.9mb
  • Matinicus Rock, Me
  • Matinicus Rock, Me

More Historic Weather Station data

Upgrade to MSW Pro to gain access to the past 30 days of data for over 8000 Wavebouys and Weather Stations around the globe.

Join Pro

Comparision Forecast

View Surf forecast
   
ven. 12/09 3:00 34 40 mph 1010.9mb 31f
2:00 36 39 mph 1009.9mb 31f
1:00 28 34 mph 1009.2mb 31f
12:00 34 39 mph 1008.9mb 31f
11:00 33 39 mph 1009.4mb 30f
10:00 34 40 mph 1009.3mb 31f
9:00 38 44 mph 1008.7mb 32f
8:00 39 41 mph 1007.9mb 32f
7:00 41 46 mph 1006.9mb 33f
6:00 33 36 mph 1005.8mb 36f
5:00 32 37 mph 1005.2mb 37f
4:00 32 36 mph 1004.8mb 37f
3:00 28 31 mph 1005mb 37f
2:00 30 33 mph 1004.9mb 37f
1:00 24 26 mph 1004.8mb 37f
12:00 28 29 mph 1004.7mb 37f
jeu. 12/08 11:00 31 34 mph 1004.9mb 38f
10:00 23 26 mph 1005.2mb 38f
9:00 24 29 mph 1005.4mb 38f
8:00 26 29 mph 1005.5mb 37f
7:00 30 33 mph 1005.1mb 41f
6:00 28 29 mph 1005mb 42f
5:00 29 31 mph 1005mb 42f
4:00 29 32 mph 1005.1mb 42f
3:00 26 30 mph 1005.3mb 42f
2:00 25 29 mph 1006mb 41f
1:00 20 23 mph 1006.6mb 41f
12:00 18 20 mph 1007.7mb 41f
11:00 17 20 mph 1008.9mb 42f
10:00 6 7 mph 1010.2mb 42f
9:00 2 3 mph 1010.8mb 41f
8:00  -  2 mph 1010.9mb 40f
7:00 2 3 mph 1011.5mb 40f
6:00 6 7 mph 1011.6mb 39f
5:00 9 11 mph 1011.9mb 38f
4:00 11 13 mph 1012.2mb 39f
3:00 13 14 mph 1012.3mb 39f
2:00 15 17 mph 1012.8mb 40f
1:00 14 15 mph 1012.4mb 41f
12:00 15 17 mph 1013mb 40f
mer. 12/07 11:00 17 20 mph 1013.8mb 41f
10:00 16 17 mph 1013.6mb 41f
9:00 16 20 mph 1013.8mb 41f
8:00 10 11 mph 1014mb 42f
7:00 11 13 mph 1014.2mb 42f
6:00 9 11 mph 1014.4mb 41f
5:00 9 10 mph 1013.9mb 41f
4:00 9 11 mph 1013.6mb 40f
3:00 9 10 mph 1013.6mb 39f
2:00 6 7 mph 1013.6mb 38f
1:00 6 7 mph 1013.6mb 37f
12:00 3 5 mph 1014.5mb 37f
11:00 3 6 mph 1014.9mb 36f
10:00 9 10 mph 1015.7mb 35f
9:00 9 11 mph 1015.6mb 37f
8:00 10 15 mph 1014.5mb 37f
7:00 14 15 mph 1014.6mb 35f
6:00 16 18 mph 1014.4mb 35f
5:00 16 18 mph 1014.1mb 35f
4:00 10 14 mph 1015.1mb 35f
3:00 8 10 mph 1016mb 34f
2:00 13 15 mph 1015.6mb 34f
1:00 6
mph
1016mb 34f
12:00 9 11 mph 1015.9mb 34f
mar. 12/06 11:00 9 13 mph 1016.7mb 33f
10:00 8 10 mph 1017.1mb 33f
9:00 10 13 mph 1017mb 33f
7:00 10 14 mph 1017.3mb 33f
6:00 15 17 mph 1017.4mb 33f
5:00 11 14 mph 1017.8mb 33f
4:00 13 15 mph 1018.1mb 33f
3:00 13 17 mph 1018mb 33f
2:00 16 17 mph 1017.7mb 33f
1:00 17 18 mph 1017.8mb 33f
12:00 18 22 mph 1018.1mb 33f
11:00 23 26 mph 1018mb 33f
10:00 23 25 mph 1018.6mb 33f
9:00 22 24 mph 1018.2mb 33f
8:00 21 24 mph 1017.9mb 33f
7:00 23 25 mph 1017.8mb 33f
6:00 22 25 mph 1017.1mb 34f
5:00 21 23 mph 1016.4mb 35f
4:00 21 24 mph 1015.7mb 34f
3:00 22 24 mph 1015.2mb 34f
2:00 28 30 mph 1014mb 35f
1:00 23 25 mph 1012.9mb 35f
12:00 26 29 mph 1011.9mb 35f
lun. 12/05 11:00 28 30 mph 1011.5mb 35f
10:00 29 31 mph 1010.7mb 36f